Time;durP1;ratioP1;P1;durP2;ratioP2;P2;SDS_P1;SDS_P2;PMS_P1;PMS_P2;Temp;Humidity;BMP_temperature;BMP_pressure;BME280_temperature;BME280_humidity;BME280_pressure;Samples;Min_cycle;Max_cycle;Signal;HPM_P1;HPM_P2
2022/03/15 00:00:28;;;;;;;42.22;20.60;;;;;;;2.78;44.80;101560.25;4515961;31;33930;-73
2022/03/15 00:02:57;;;;;;;55.58;23.60;;;;;;;1.99;46.78;101558.22;4516642;31;34175;-68
2022/03/15 00:05:24;;;;;;;53.75;24.80;;;;;;;2.11;46.47;101554.34;4516574;31;34154;-72
2022/03/15 00:07:53;;;;;;;72.80;30.70;;;;;;;2.41;46.16;101547.81;4516740;31;33948;-71
2022/03/15 00:10:21;;;;;;;76.43;32.20;;;;;;;1.82;47.04;101536.59;4516381;31;34430;-71
2022/03/15 00:12:49;;;;;;;92.88;35.47;;;;;;;2.07;46.49;101538.72;4516746;31;33439;-70
2022/03/15 00:15:16;;;;;;;94.35;35.90;;;;;;;2.18;46.40;101541.19;4510939;31;33704;-70
2022/03/15 00:17:44;;;;;;;88.75;37.42;;;;;;;2.40;46.10;101540.78;4506805;31;34934;-71
2022/03/15 00:20:19;;;;;;;81.30;32.50;;;;;;;2.40;46.52;101539.94;4508187;31;33523;-72
2022/03/15 00:22:47;;;;;;;47.85;22.52;;;;;;;2.77;45.73;101547.84;4507686;31;33504;-71
2022/03/15 00:25:17;;;;;;;24.65;11.70;;;;;;;2.58;45.96;101538.09;4506606;31;33887;-72
2022/03/15 00:27:46;;;;;;;35.10;17.85;;;;;;;2.27;46.92;101529.59;4506310;31;33989;-71
2022/03/15 00:30:14;;;;;;;1.55;1.05;;;;;;;2.36;47.00;101522.50;4507845;31;34636;-70
2022/03/15 00:32:43;;;;;;;29.75;15.80;;;;;;;2.75;45.62;101516.84;4507405;31;33203;-72
2022/03/15 00:35:17;;;;;;;29.17;15.13;;;;;;;2.28;46.72;101520.56;4502440;31;33393;-72
2022/03/15 00:37:49;;;;;;;30.40;15.25;;;;;;;2.14;46.98;101524.59;4500432;31;34277;-71
2022/03/15 00:40:17;;;;;;;30.80;15.45;;;;;;;2.03;47.50;101530.12;4500351;31;34674;-71
2022/03/15 00:42:49;;;;;;;35.03;16.40;;;;;;;2.21;46.82;101519.47;4500153;31;33429;-72
2022/03/15 00:45:27;;;;;;;34.17;16.83;;;;;;;2.23;47.47;101533.56;4500340;31;34815;-72
2022/03/15 00:47:56;;;;;;;36.30;16.92;;;;;;;1.80;48.28;101535.06;4500164;31;34270;-71
2022/03/15 00:50:25;;;;;;;25.73;13.60;;;;;;;1.98;47.78;101535.09;4500183;31;34874;-72
2022/03/15 00:52:53;;;;;;;21.35;12.75;;;;;;;1.61;48.35;101528.78;4500388;31;33847;-72
2022/03/15 00:55:21;;;;;;;26.23;12.57;;;;;;;1.90;47.72;101526.97;4499838;31;34933;-68
2022/03/15 00:57:49;;;;;;;23.23;12.68;;;;;;;1.77;48.15;101535.34;4500192;31;34848;-72
2022/03/15 01:00:17;;;;;;;1.05;0.90;;;;;;;1.82;48.54;101531.22;4500364;31;34089;-72
2022/03/15 01:02:45;;;;;;;20.65;11.35;;;;;;;2.49;47.21;101522.13;4499632;31;34284;-72
2022/03/15 01:05:13;;;;;;;22.70;10.65;;;;;;;1.64;48.05;101523.16;4500173;31;34926;-72
2022/03/15 01:07:40;;;;;;;19.20;10.35;;;;;;;1.12;49.23;101509.34;4499917;31;34622;-71
2022/03/15 01:10:08;;;;;;;20.60;10.20;;;;;;;2.07;47.46;101499.41;4500193;31;33630;-72
2022/03/15 01:12:36;;;;;;;0.90;0.90;;;;;;;2.34;46.51;101489.66;4502231;31;33546;-71
2022/03/15 01:15:06;;;;;;;0.73;0.73;;;;;;;2.00;47.14;101484.94;4502280;31;34154;-72
2022/03/15 01:17:36;;;;;;;18.12;11.25;;;;;;;1.58;48.40;101488.94;4502029;31;35069;-65
2022/03/15 01:20:06;;;;;;;0.82;0.80;;;;;;;1.36;49.84;101495.50;4502056;31;34772;-71
2022/03/15 01:22:36;;;;;;;20.52;11.43;;;;;;;2.31;47.45;101487.25;4502165;31;34314;-71
2022/03/15 01:25:06;;;;;;;20.17;10.20;;;;;;;2.30;47.26;101483.75;4502203;31;34492;-70
2022/03/15 01:27:36;;;;;;;7.12;3.42;;;;;;;2.33;46.89;101482.59;4502079;31;34172;-71
2022/03/15 01:30:06;;;;;;;15.82;9.45;;;;;;;1.99;47.51;101480.59;4501922;31;34044;-68
2022/03/15 01:32:34;;;;;;;0.82;0.82;;;;;;;2.15;47.46;101475.38;4501934;31;34302;-72
2022/03/15 01:35:04;;;;;;;17.35;9.63;;;;;;;1.99;47.93;101478.75;4501928;31;34030;-71
2022/03/15 01:37:32;;;;;;;17.80;10.50;;;;;;;2.11;47.40;101474.00;4501877;31;34179;-71
2022/03/15 01:40:05;;;;;;;1.90;1.35;;;;;;;2.41;46.73;101477.31;4500724;31;34785;-68
2022/03/15 01:42:33;;;;;;;0.68;0.62;;;;;;;2.31;46.91;101473.87;4502006;31;33672;-72
2022/03/15 01:45:03;;;;;;;17.12;9.13;;;;;;;2.30;46.94;101478.41;4501868;31;33962;-72
2022/03/15 01:47:33;;;;;;;17.10;9.15;;;;;;;1.76;48.05;101490.84;4501924;31;34973;-71
2022/03/15 01:50:02;;;;;;;1.05;0.95;;;;;;;2.27;46.85;101484.06;4501832;31;34698;-67
2022/03/15 01:52:30;;;;;;;19.87;10.27;;;;;;;2.73;45.91;101492.84;4502098;31;33486;-72
2022/03/15 01:54:57;;;;;;;16.55;9.55;;;;;;;2.12;47.51;101502.47;4501836;31;34006;-71
2022/03/15 01:57:25;;;;;;;20.10;9.98;;;;;;;2.78;46.13;101506.62;4501752;31;35038;-71
2022/03/15 01:59:53;;;;;;;18.23;9.45;;;;;;;2.82;45.77;101493.78;4501887;31;34728;-72
2022/03/15 02:02:21;;;;;;;15.88;8.88;;;;;;;2.20;48.09;101497.22;4500545;31;34274;-72
2022/03/15 02:04:50;;;;;;;16.85;9.65;;;;;;;1.91;48.36;101497.38;4501543;31;34048;-72
2022/03/15 02:07:18;;;;;;;14.63;9.13;;;;;;;1.95;48.09;101497.94;4501769;31;34162;-72
2022/03/15 02:09:45;;;;;;;16.37;9.40;;;;;;;2.06;47.33;101495.03;4501734;31;34657;-71
2022/03/15 02:12:14;;;;;;;13.60;7.43;;;;;;;1.80;47.65;101486.88;4501638;31;33183;-66
2022/03/15 02:14:41;;;;;;;19.23;9.02;;;;;;;2.07;47.33;101486.00;4501695;31;33965;-72
2022/03/15 02:17:08;;;;;;;17.90;10.20;;;;;;;1.80;48.19;101485.03;4501828;31;34185;-72
2022/03/15 02:19:37;;;;;;;17.15;9.35;;;;;;;1.75;48.29;101486.47;4501616;31;33785;-71
2022/03/15 02:22:04;;;;;;;13.23;7.22;;;;;;;0.88;50.33;101480.41;4501367;31;33398;-70
2022/03/15 02:24:34;;;;;;;15.20;9.10;;;;;;;1.92;48.02;101484.84;4501685;31;34681;-70
2022/03/15 02:27:02;;;;;;;16.83;9.57;;;;;;;1.58;48.43;101486.28;4500417;31;34340;-72
2022/03/15 02:29:29;;;;;;;16.10;9.35;;;;;;;1.57;48.90;101476.53;4501707;31;34708;-72
2022/03/15 02:31:58;;;;;;;2.00;1.90;;;;;;;1.67;49.45;101481.88;4501655;31;33806;-72
2022/03/15 02:34:26;;;;;;;14.13;8.77;;;;;;;1.80;48.69;101484.22;4501521;31;34648;-70
2022/03/15 02:36:53;;;;;;;18.02;9.65;;;;;;;1.66;48.63;101484.69;4501642;31;34084;-67
2022/03/15 02:39:21;;;;;;;15.23;9.60;;;;;;;2.22;47.96;101486.34;4501473;31;34013;-70
2022/03/15 02:41:49;;;;;;;17.30;9.15;;;;;;;1.49;48.59;101491.66;4500140;31;33306;-72
2022/03/15 02:44:16;;;;;;;16.48;9.93;;;;;;;1.36;49.43;101494.66;4501431;31;33954;-71
2022/03/15 02:46:48;;;;;;;14.40;8.77;;;;;;;2.01;48.05;101494.66;4501583;31;34369;-67
2022/03/15 02:49:16;;;;;;;16.33;9.52;;;;;;;1.42;49.79;101494.91;4501401;31;33723;-71
2022/03/15 02:51:43;;;;;;;17.08;8.85;;;;;;;1.26;49.99;101500.03;4501468;31;34215;-72
2022/03/15 02:54:13;;;;;;;14.98;9.27;;;;;;;1.28;49.83;101494.56;4501331;31;34736;-70
2022/03/15 02:56:43;;;;;;;17.90;9.57;;;;;;;1.33;49.55;101498.47;4500473;31;35177;-70
2022/03/15 02:59:14;;;;;;;6.78;3.80;;;;;;;1.59;49.11;101504.00;4501577;31;33948;-72
2022/03/15 03:01:42;;;;;;;0.77;0.77;;;;;;;1.53;48.93;101496.56;4501191;31;33506;-71
2022/03/15 03:04:11;;;;;;;19.65;9.82;;;;;;;1.80;48.53;101498.41;4501454;31;34592;-71
2022/03/15 03:06:41;;;;;;;15.68;8.73;;;;;;;1.91;48.31;101499.22;4501355;31;34280;-72
2022/03/15 03:09:11;;;;;;;1.02;0.95;;;;;;;1.99;48.39;101499.31;4501235;31;34803;-72
2022/03/15 03:11:39;;;;;;;0.70;0.70;;;;;;;1.78;48.28;101497.72;4501383;31;34330;-70
2022/03/15 03:14:06;;;;;;;15.20;9.05;;;;;;;1.73;48.51;101497.34;4501355;31;33797;-71
2022/03/15 03:16:36;;;;;;;1.95;1.75;;;;;;;1.35;50.00;101491.13;4501289;31;34037;-66
2022/03/15 03:19:07;;;;;;;2.70;1.70;;;;;;;1.99;48.82;101505.50;4501153;31;34453;-71
2022/03/15 03:21:36;;;;;;;1.37;0.95;;;;;;;2.14;47.73;101494.28;4501215;31;33495;-69
2022/03/15 03:24:07;;;;;;;15.63;10.00;;;;;;;2.35;46.80;101496.69;4501304;31;33902;-71
2022/03/15 03:26:37;;;;;;;15.63;9.70;;;;;;;2.42;46.90;101492.41;4501377;31;35082;-72
2022/03/15 03:29:10;;;;;;;0.77;0.77;;;;;;;1.69;49.21;101495.13;4501126;31;33942;-71
2022/03/15 03:31:39;;;;;;;3.67;2.40;;;;;;;1.53;49.52;101490.38;4501105;31;33151;-71
2022/03/15 03:34:07;;;;;;;18.25;10.75;;;;;;;1.57;49.42;101492.59;4500160;31;33991;-71
2022/03/15 03:36:36;;;;;;;1.58;1.17;;;;;;;1.84;49.25;101485.59;4500998;31;34197;-66
2022/03/15 03:39:23;;;;;;;1.00;0.95;;;;;;;2.04;47.89;101489.00;4501149;31;33994;-67
2022/03/15 03:41:51;;;;;;;17.67;11.48;;;;;;;1.81;48.37;101497.44;4501103;31;33330;-66
2022/03/15 03:44:18;;;;;;;19.25;11.25;;;;;;;2.07;47.27;101510.09;4501243;31;33920;-68
2022/03/15 03:46:46;;;;;;;3.58;1.33;;;;;;;1.55;49.55;101505.28;4501061;31;34293;-67
2022/03/15 03:49:14;;;;;;;19.00;10.20;;;;;;;1.40;49.46;101506.75;4501066;31;33841;-69
2022/03/15 03:51:43;;;;;;;1.23;0.95;;;;;;;1.21;49.59;101494.28;4501079;31;33549;-71
2022/03/15 03:54:10;;;;;;;19.45;10.93;;;;;;;1.22;49.18;101495.97;4501289;31;33945;-77
2022/03/15 03:56:38;;;;;;;19.02;10.65;;;;;;;1.01;49.58;101501.47;4500823;31;35083;-71
2022/03/15 03:59:05;;;;;;;2.67;0.82;;;;;;;0.93;50.14;101506.69;4501152;31;33963;-71
2022/03/15 04:01:33;;;;;;;17.95;10.48;;;;;;;1.80;48.52;101510.97;4500871;31;33411;-74
2022/03/15 04:04:06;;;;;;;2.37;1.60;;;;;;;1.29;49.26;101513.09;4500580;31;33686;-72
2022/03/15 04:06:33;;;;;;;0.88;0.85;;;;;;;1.43;48.68;101511.81;4500913;31;34069;-72
2022/03/15 04:09:01;;;;;;;20.42;11.52;;;;;;;1.93;47.55;101507.94;4500439;31;35040;-70
2022/03/15 04:11:31;;;;;;;1.25;1.12;;;;;;;1.12;49.48;101500.47;4500768;31;33729;-72
2022/03/15 04:13:59;;;;;;;6.62;4.53;;;;;;;1.11;49.86;101499.66;4501167;31;33961;-72
2022/03/15 04:16:29;;;;;;;22.37;11.50;;;;;;;1.44;49.75;101495.59;4500577;31;35157;-70
2022/03/15 04:18:57;;;;;;;19.23;10.70;;;;;;;0.96;51.29;101496.56;4500999;31;34748;-66
2022/03/15 04:21:24;;;;;;;20.90;11.48;;;;;;;1.09;51.23;101498.94;4500637;31;33527;-68
2022/03/15 04:23:54;;;;;;;19.67;12.18;;;;;;;1.36;50.64;101506.22;4500517;31;33939;-72
2022/03/15 04:26:22;;;;;;;0.88;0.82;;;;;;;1.41;51.11;101506.59;4499523;31;33934;-72
2022/03/15 04:28:51;;;;;;;5.57;3.92;;;;;;;1.70;49.56;101500.28;4500535;31;33622;-72
2022/03/15 04:31:18;;;;;;;18.40;9.65;;;;;;;1.57;49.97;101507.81;4500283;31;33289;-64
2022/03/15 04:33:46;;;;;;;0.50;0.50;;;;;;;1.58;48.90;101509.50;4500418;31;34804;-72
2022/03/15 04:36:13;;;;;;;0.70;0.70;;;;;;;1.47;49.06;101513.22;4500093;31;34826;-72
2022/03/15 04:38:42;;;;;;;13.88;9.00;;;;;;;1.13;49.88;101515.56;4500427;31;33925;-72
2022/03/15 04:41:11;;;;;;;16.17;10.05;;;;;;;0.78;50.63;101523.19;4500389;31;33549;-71
2022/03/15 04:43:38;;;;;;;17.25;10.13;;;;;;;0.77;50.99;101520.66;4500271;31;34743;-71
2022/03/15 04:46:06;;;;;;;16.98;9.95;;;;;;;0.71;52.14;101523.88;4501651;31;34847;-72
2022/03/15 04:48:34;;;;;;;18.20;10.15;;;;;;;0.75;51.31;101518.09;4502289;31;34078;-66
2022/03/15 04:51:05;;;;;;;0.77;0.77;;;;;;;1.13;50.10;101519.06;4502351;31;33576;-72
2022/03/15 04:53:33;;;;;;;18.80;10.60;;;;;;;1.18;50.29;101515.94;4502371;31;34897;-72
2022/03/15 04:56:01;;;;;;;20.00;10.20;;;;;;;1.07;50.40;101524.97;4502643;31;34245;-72
2022/03/15 04:58:28;;;;;;;15.95;10.07;;;;;;;0.95;50.67;101524.31;4502041;31;34174;-68
2022/03/15 05:00:57;;;;;;;15.93;10.27;;;;;;;1.04;50.65;101530.62;4502135;31;33614;-71
2022/03/15 05:03:24;;;;;;;19.08;10.48;;;;;;;1.08;50.63;101534.69;4502415;31;34713;-73
2022/03/15 05:05:52;;;;;;;15.50;7.97;;;;;;;0.92;51.11;101529.06;4502270;31;33299;-72
2022/03/15 05:08:19;;;;;;;19.73;11.23;;;;;;;1.40;49.96;101533.47;4502717;31;33829;-73
2022/03/15 05:13:39;;;;;;;9.27;5.50;;;;;;;1.01;50.55;101530.88;4502160;31;34237;-71
2022/03/15 05:16:11;;;;;;;17.40;11.07;;;;;;;1.01;50.59;101536.22;4502251;31;34946;-72
2022/03/15 05:18:40;;;;;;;0.73;0.73;;;;;;;0.44;51.53;101536.09;4502100;31;33844;-73
2022/03/15 05:21:08;;;;;;;17.75;11.45;;;;;;;0.90;51.35;101542.56;4502106;31;34277;-71
2022/03/15 05:23:35;;;;;;;22.10;11.98;;;;;;;0.93;51.21;101536.09;4501987;31;34026;-72
2022/03/15 05:26:03;;;;;;;35.50;17.55;;;;;;;1.05;50.77;101534.13;4501928;31;34418;-71
2022/03/15 05:28:30;;;;;;;24.75;13.85;;;;;;;1.59;49.50;101528.06;4502161;31;34610;-72
2022/03/15 05:30:58;;;;;;;19.12;11.98;;;;;;;1.72;48.74;101525.06;4504359;31;33812;-66
2022/03/15 05:33:28;;;;;;;20.70;12.40;;;;;;;1.67;49.01;101523.84;4518010;31;33188;-72
2022/03/15 05:35:55;;;;;;;18.62;10.73;;;;;;;1.58;49.29;101528.25;4517918;31;34204;-69
2022/03/15 05:38:23;;;;;;;6.45;4.15;;;;;;;1.54;49.61;101525.00;4518309;31;33676;-64
2022/03/15 05:40:51;;;;;;;19.42;10.93;;;;;;;1.68;49.23;101523.69;4505333;31;34449;-68
2022/03/15 05:43:19;;;;;;;19.27;11.10;;;;;;;1.69;49.07;101527.22;4502099;31;33930;-70
2022/03/15 05:45:46;;;;;;;19.27;11.25;;;;;;;1.96;47.82;101529.88;4501529;31;34089;-68
2022/03/15 05:48:14;;;;;;;17.85;11.32;;;;;;;2.08;47.64;101530.53;4501933;31;34030;-72
2022/03/15 05:50:42;;;;;;;1.05;0.80;;;;;;;2.37;46.89;101533.03;4501957;31;34144;-67
2022/03/15 05:53:09;;;;;;;3.33;3.10;;;;;;;2.38;47.40;101528.53;4501473;31;34593;-68
2022/03/15 05:55:37;;;;;;;21.80;12.07;;;;;;;2.70;47.49;101528.03;4501816;31;35074;-65
2022/03/15 05:58:04;;;;;;;22.90;12.48;;;;;;;2.24;46.72;101524.53;4501071;31;33937;-65
2022/03/15 06:00:34;;;;;;;0.70;0.70;;;;;;;2.42;47.68;101528.09;4504346;31;33560;-70
2022/03/15 06:03:02;;;;;;;21.10;13.07;;;;;;;3.21;46.56;101529.09;4518006;31;33893;-70
2022/03/15 06:05:30;;;;;;;21.67;12.35;;;;;;;3.58;46.07;101522.59;4517292;31;34183;-70
2022/03/15 06:07:58;;;;;;;24.20;12.48;;;;;;;4.17;43.87;101529.91;4517572;31;34066;-65
2022/03/15 06:10:28;;;;;;;24.37;13.15;;;;;;;4.69;42.41;101522.47;4517673;31;33617;-75
2022/03/15 06:12:56;;;;;;;24.67;12.82;;;;;;;5.23;40.90;101521.16;4503202;31;34202;-64
2022/03/15 06:15:24;;;;;;;24.95;13.23;;;;;;;5.38;40.74;101523.94;4513759;31;34756;-64
2022/03/15 06:17:56;;;;;;;21.98;12.52;;;;;;;5.95;39.65;101521.97;4516232;31;34633;-63
2022/03/15 06:20:25;;;;;;;21.52;12.30;;;;;;;6.42;39.21;101524.78;4516310;31;33501;-71
2022/03/15 06:22:56;;;;;;;20.73;12.20;;;;;;;6.75;37.48;101526.22;4515770;31;34588;-65
2022/03/15 06:25:25;;;;;;;24.80;13.23;;;;;;;7.46;36.76;101525.13;4516249;31;34293;-68
2022/03/15 06:27:53;;;;;;;23.17;12.80;;;;;;;7.58;35.94;101529.88;4515579;31;34053;-65
2022/03/15 06:30:21;;;;;;;24.70;14.68;;;;;;;8.10;35.35;101527.22;4515820;31;34234;-65
2022/03/15 06:32:48;;;;;;;30.65;15.25;;;;;;;8.43;34.07;101530.38;4513882;31;34321;-75
2022/03/15 06:35:16;;;;;;;22.87;13.30;;;;;;;8.83;33.23;101539.75;4515992;31;34053;-69
2022/03/15 06:37:46;;;;;;;24.48;14.20;;;;;;;8.08;33.71;101537.41;4515811;31;34131;-65
2022/03/15 06:40:16;;;;;;;21.20;13.38;;;;;;;7.45;36.44;101539.63;4516093;31;33767;-70
2022/03/15 06:42:44;;;;;;;21.60;12.37;;;;;;;8.40;33.55;101537.03;4515728;31;33776;-76
2022/03/15 06:45:12;;;;;;;19.75;12.05;;;;;;;9.04;34.68;101535.34;4515427;31;34473;-72
2022/03/15 06:47:40;;;;;;;21.23;12.52;;;;;;;9.85;32.93;101529.50;4515674;31;33799;-65
2022/03/15 06:50:12;;;;;;;22.58;12.88;;;;;;;10.10;30.78;101528.97;4516163;31;33256;-72
2022/03/15 06:52:43;;;;;;;20.02;13.40;;;;;;;9.85;31.98;101529.50;4516307;31;33830;-69
2022/03/15 06:55:12;;;;;;;24.08;13.35;;;;;;;10.98;31.05;101523.59;4516117;31;33787;-73
2022/03/15 06:57:40;;;;;;;22.37;13.15;;;;;;;11.97;29.24;101524.56;4515857;31;33994;-69
2022/03/15 07:00:10;;;;;;;21.12;13.32;;;;;;;12.37;28.35;101511.59;4514886;31;34300;-71
2022/03/15 07:02:38;;;;;;;22.17;13.93;;;;;;;12.62;26.86;101511.66;4514735;31;33697;-74
2022/03/15 07:05:06;;;;;;;20.15;13.15;;;;;;;12.42;27.70;101503.63;4515819;31;34024;-73
2022/03/15 07:07:34;;;;;;;20.88;12.88;;;;;;;11.85;26.92;101506.12;4515805;31;33763;-77
2022/03/15 07:10:06;;;;;;;21.27;13.77;;;;;;;10.49;29.43;101498.44;4515177;31;33521;-73
2022/03/15 07:12:34;;;;;;;24.35;14.23;;;;;;;10.71;28.93;101495.56;4514879;31;33855;-74
2022/03/15 07:15:04;;;;;;;22.67;14.50;;;;;;;10.44;29.61;101496.34;4515431;31;34209;-73
2022/03/15 07:17:31;;;;;;;21.98;14.13;;;;;;;10.83;29.49;101500.19;4515450;31;33739;-74
2022/03/15 07:19:59;;;;;;;22.17;14.60;;;;;;;10.95;29.21;101502.28;4515547;31;34938;-75
2022/03/15 07:22:27;;;;;;;21.35;13.27;;;;;;;11.03;29.08;101497.47;4515024;31;33956;-77
2022/03/15 07:24:54;;;;;;;22.85;13.50;;;;;;;11.18;29.99;101507.28;4512259;31;33929;-70
2022/03/15 07:27:22;;;;;;;22.85;13.75;;;;;;;10.58;29.41;101512.66;4515585;31;34693;-74
2022/03/15 07:29:49;;;;;;;21.12;12.48;;;;;;;11.06;28.88;101501.66;4512248;31;33677;-63
2022/03/15 07:32:17;;;;;;;23.52;12.80;;;;;;;12.08;28.41;101502.94;4512559;31;34046;-65
2022/03/15 07:34:50;;;;;;;19.00;11.77;;;;;;;12.02;27.64;101495.63;4512340;31;35149;-72
2022/03/15 07:37:30;;;;;;;20.62;11.70;;;;;;;12.45;25.92;101497.72;4499457;31;33233;-65
2022/03/15 07:39:58;;;;;;;20.08;12.18;;;;;;;12.46;25.79;101502.13;4505307;31;33583;-65
2022/03/15 07:42:27;;;;;;;19.62;11.65;;;;;;;12.53;24.98;101499.38;4515516;31;33697;-64
2022/03/15 07:44:55;;;;;;;21.48;12.43;;;;;;;13.30;24.68;101497.34;4513260;31;35143;-64
2022/03/15 07:47:22;;;;;;;21.67;12.45;;;;;;;12.96;25.00;101506.81;4514813;31;33675;-73
2022/03/15 07:49:51;;;;;;;21.27;11.50;;;;;;;12.89;24.84;101503.28;4511993;31;34462;-62
2022/03/15 07:52:18;;;;;;;18.45;11.70;;;;;;;12.01;26.03;101504.03;4512734;31;34037;-73
2022/03/15 07:54:46;;;;;;;19.23;12.52;;;;;;;12.20;25.84;101511.28;4515260;31;33995;-73
2022/03/15 07:57:14;;;;;;;19.90;12.55;;;;;;;12.08;26.07;101502.94;4514169;31;33929;-74
2022/03/15 07:59:42;;;;;;;22.60;12.52;;;;;;;11.94;27.09;101504.03;4514665;31;33646;-73
2022/03/15 08:02:10;;;;;;;21.35;13.07;;;;;;;11.50;27.87;101506.41;4514502;31;33841;-63
2022/03/15 08:04:37;;;;;;;23.75;13.70;;;;;;;12.21;26.98;101506.66;4510638;31;33970;-68
2022/03/15 08:07:05;;;;;;;27.08;15.32;;;;;;;12.54;26.37;101511.09;4511913;31;33879;-63
2022/03/15 08:09:32;;;;;;;22.70;12.60;;;;;;;13.08;25.52;101506.94;4512669;31;33520;-62
2022/03/15 08:12:00;;;;;;;18.30;12.10;;;;;;;12.72;26.54;101501.13;4514477;31;34016;-65
2022/03/15 08:14:28;;;;;;;20.25;12.60;;;;;;;13.30;24.97;101497.34;4514051;31;35045;-63
2022/03/15 08:16:59;;;;;;;22.95;13.57;;;;;;;13.39;25.04;101503.34;4514985;31;34184;-62
2022/03/15 08:19:28;;;;;;;23.23;13.43;;;;;;;13.23;25.10;101507.41;4514587;31;33825;-64
2022/03/15 08:22:02;;;;;;;21.37;13.60;;;;;;;13.57;24.87;101507.97;4520540;31;32200;-63
2022/03/15 08:24:29;;;;;;;24.52;13.68;;;;;;;13.46;25.40;101498.66;4514968;31;35082;-63
2022/03/15 08:26:57;;;;;;;24.33;14.70;;;;;;;12.54;26.52;101492.84;4515788;31;33988;-74
2022/03/15 08:29:24;;;;;;;22.33;13.50;;;;;;;12.39;26.62;101490.44;4514214;31;34249;-74
2022/03/15 08:31:56;;;;;;;20.08;12.35;;;;;;;11.63;27.69;101497.41;4514969;31;34771;-73
2022/03/15 08:34:23;;;;;;;21.00;12.63;;;;;;;12.77;26.16;101492.28;4514177;31;35170;-73
2022/03/15 08:36:53;;;;;;;20.62;12.07;;;;;;;13.17;25.54;101485.69;4515924;31;34483;-75
2022/03/15 08:39:22;;;;;;;19.50;11.60;;;;;;;13.29;25.24;101486.66;4515114;31;33967;-75
2022/03/15 08:41:51;;;;;;;17.90;10.88;;;;;;;13.20;24.86;101480.63;4514647;31;34626;-72
2022/03/15 08:44:19;;;;;;;15.90;9.82;;;;;;;13.50;23.33;101479.94;4515731;31;34171;-68
2022/03/15 08:46:47;;;;;;;17.77;10.02;;;;;;;14.01;22.76;101486.06;4515447;31;34882;-70
2022/03/15 08:49:17;;;;;;;16.17;9.93;;;;;;;14.43;21.80;101477.97;4513851;31;34424;-74
2022/03/15 08:51:45;;;;;;;20.30;9.73;;;;;;;14.34;21.60;101474.69;4510125;31;33581;-73
2022/03/15 08:54:13;;;;;;;18.35;11.15;;;;;;;13.69;22.50;101456.22;4513220;31;35179;-76
2022/03/15 08:56:41;;;;;;;16.95;10.15;;;;;;;13.35;23.10;101453.06;4514201;31;34372;-73
2022/03/15 08:59:12;;;;;;;16.85;9.88;;;;;;;12.92;24.09;101451.94;4515224;31;34332;-74
2022/03/15 09:01:40;;;;;;;16.27;10.02;;;;;;;12.81;24.02;101447.22;4513997;31;34724;-72
2022/03/15 09:04:09;;;;;;;14.23;8.75;;;;;;;12.28;25.18;101448.41;4513750;31;35036;-76
2022/03/15 09:06:37;;;;;;;15.98;9.57;;;;;;;13.27;23.02;101447.84;4514884;31;34169;-74
2022/03/15 09:09:04;;;;;;;14.73;8.70;;;;;;;13.64;22.66;101451.47;4514118;31;34094;-71
2022/03/15 09:11:32;;;;;;;14.87;8.68;;;;;;;13.79;23.27;101439.34;4514506;31;33984;-74
2022/03/15 09:14:00;;;;;;;13.85;7.87;;;;;;;13.81;22.99;101443.50;4515165;31;34296;-75
2022/03/15 09:16:28;;;;;;;12.80;8.27;;;;;;;13.98;22.25;101440.97;4514444;31;34633;-73
2022/03/15 09:18:57;;;;;;;14.57;9.23;;;;;;;13.67;23.44;101437.37;4514669;31;33513;-74
2022/03/15 09:21:25;;;;;;;15.75;9.07;;;;;;;13.20;23.14;101433.47;4511471;31;34857;-74
2022/03/15 09:23:52;;;;;;;14.73;9.27;;;;;;;13.74;23.56;101429.94;4506487;31;34856;-73
2022/03/15 09:26:20;;;;;;;15.30;9.25;;;;;;;14.39;22.80;101427.63;4513589;31;33891;-71
2022/03/15 09:28:47;;;;;;;14.18;8.63;;;;;;;14.33;22.21;101421.19;4515294;31;33450;-73
2022/03/15 09:31:15;;;;;;;13.70;8.02;;;;;;;14.58;23.46;101418.31;4514121;31;33890;-72
2022/03/15 09:33:43;;;;;;;15.02;9.10;;;;;;;15.43;21.03;101416.19;4514325;31;35205;-73
2022/03/15 09:36:12;;;;;;;16.55;9.10;;;;;;;14.52;22.21;101411.84;4517049;31;33440;-74
2022/03/15 09:38:40;;;;;;;14.38;8.40;;;;;;;14.47;22.12;101413.59;4517502;31;34315;-74
2022/03/15 09:41:07;;;;;;;14.20;9.05;;;;;;;14.69;22.09;101409.31;4516736;31;34046;-73
2022/03/15 09:43:38;;;;;;;16.70;10.00;;;;;;;15.01;22.10;101410.84;4516797;31;34203;-74
2022/03/15 09:46:07;;;;;;;13.75;9.40;;;;;;;14.05;23.20;101408.12;4516222;31;34527;-74
2022/03/15 09:48:54;;;;;;;16.08;9.68;;;;;;;14.71;21.94;101398.16;4516564;31;33105;-72
2022/03/15 09:51:23;;;;;;;15.15;8.20;;;;;;;14.77;22.88;101405.38;4516348;31;34064;-65
2022/03/15 09:53:53;;;;;;;17.05;9.13;;;;;;;14.73;22.20;101399.56;4516942;31;34237;-75
2022/03/15 09:56:21;;;;;;;14.68;9.07;;;;;;;14.97;22.07;101403.13;4514406;31;34874;-64
2022/03/15 09:58:48;;;;;;;16.50;9.23;;;;;;;14.46;23.04;101403.75;4517491;31;33488;-63
2022/03/15 10:01:17;;;;;;;14.98;9.10;;;;;;;15.38;21.82;101404.06;4509800;31;33533;-64
2022/03/15 10:03:46;;;;;;;20.17;9.73;;;;;;;14.54;23.13;101401.53;4517004;31;34238;-71
2022/03/15 10:06:14;;;;;;;16.25;8.90;;;;;;;15.18;22.72;101393.50;4516170;31;34853;-62
2022/03/15 10:08:42;;;;;;;18.37;9.98;;;;;;;15.44;22.75;101401.44;4516433;31;34085;-67
2022/03/15 10:11:12;;;;;;;17.45;9.65;;;;;;;15.52;22.90;101388.19;4516276;31;34153;-66
2022/03/15 10:13:41;;;;;;;13.60;8.80;;;;;;;15.59;22.46;101396.28;4503759;31;32590;-68
2022/03/15 10:16:12;;;;;;;12.73;8.38;;;;;;;14.56;23.35;101393.97;4516726;31;34756;-68
2022/03/15 10:18:53;;;;;;;16.40;8.82;;;;;;;15.28;22.51;101401.09;4511910;31;34260;-70
2022/03/15 10:21:24;;;;;;;11.00;7.50;;;;;;;15.41;22.62;101389.06;4516952;31;34089;-65
2022/03/15 10:23:58;;;;;;;16.42;8.30;;;;;;;14.49;23.42;101382.28;4516560;31;34184;-66
2022/03/15 10:26:26;;;;;;;12.45;7.03;;;;;;;14.80;23.16;101377.59;4517199;31;34766;-69
2022/03/15 10:28:56;;;;;;;14.35;7.22;;;;;;;15.55;22.38;101381.41;4516809;31;33546;-69
2022/03/15 10:31:24;;;;;;;12.20;7.75;;;;;;;15.57;23.05;101373.78;4517096;31;34556;-70
2022/03/15 10:33:54;;;;;;;13.35;8.30;;;;;;;14.95;22.87;101377.13;4516862;31;34277;-71
2022/03/15 10:36:22;;;;;;;16.27;9.80;;;;;;;15.70;22.32;101362.59;4515357;31;34653;-71
2022/03/15 10:38:51;;;;;;;11.68;7.40;;;;;;;16.60;21.68;101354.63;4517053;31;33273;-68
2022/03/15 10:41:20;;;;;;;13.25;8.35;;;;;;;16.63;21.50;101354.12;4516875;31;34670;-70
2022/03/15 10:43:53;;;;;;;13.68;8.27;;;;;;;16.33;22.13;101343.50;4513263;31;35012;-68
2022/03/15 10:46:25;;;;;;;13.95;8.18;;;;;;;16.72;21.56;101344.41;4516255;31;34113;-68
2022/03/15 10:49:00;;;;;;;14.32;9.13;;;;;;;16.39;21.68;101335.13;4504335;31;33834;-69
2022/03/15 10:51:28;;;;;;;16.27;8.73;;;;;;;16.03;22.10;101324.66;4509237;31;33815;-68
2022/03/15 10:54:03;;;;;;;14.48;8.32;;;;;;;16.68;22.42;101324.06;4517218;31;34184;-67
2022/03/15 10:56:31;;;;;;;18.27;8.90;;;;;;;16.75;21.29;101321.16;4516309;31;33821;-70
2022/03/15 10:59:01;;;;;;;14.57;8.45;;;;;;;15.99;21.46;101307.87;4506825;31;33359;-69
2022/03/15 11:01:35;;;;;;;13.77;8.98;;;;;;;15.64;21.83;101306.09;4509997;31;34723;-73
2022/03/15 11:04:06;;;;;;;13.40;8.05;;;;;;;16.23;21.63;101302.25;4513794;31;34050;-68
2022/03/15 11:06:38;;;;;;;13.23;8.13;;;;;;;16.99;21.99;101297.13;4515544;31;34758;-67
2022/03/15 11:09:25;;;;;;;11.95;7.50;;;;;;;16.78;20.88;101293.22;4508091;31;34093;-70
2022/03/15 11:11:55;;;;;;;12.95;7.45;;;;;;;16.38;21.17;101284.16;4509775;31;33920;-71
2022/03/15 11:14:40;;;;;;;11.23;7.25;;;;;;;16.79;20.85;101292.16;4507345;31;34173;-69
2022/03/15 11:17:16;;;;;;;11.23;6.37;;;;;;;16.10;21.24;101265.91;4508560;31;34800;-71
2022/03/15 11:19:45;;;;;;;12.57;7.05;;;;;;;16.49;20.56;101257.75;4505518;31;34082;-71
2022/03/15 11:22:17;;;;;;;10.95;6.70;;;;;;;17.09;20.34;101250.63;4509847;31;33725;-71
2022/03/15 11:25:02;;;;;;;11.43;6.72;;;;;;;16.91;20.15;101248.19;4508042;31;34008;-69
2022/03/15 11:27:32;;;;;;;9.70;6.47;;;;;;;16.42;20.88;101257.09;4515043;31;33773;-68
2022/03/15 11:30:03;;;;;;;11.63;6.78;;;;;;;16.86;19.64;101242.66;4514170;31;33210;-71